Time;durP1;ratioP1;P1;durP2;ratioP2;P2;SDS_P1;SDS_P2;PMS_P1;PMS_P2;Temp;Humidity;BMP_temperature;BMP_pressure;BME280_temperature;BME280_humidity;BME280_pressure;Samples;Min_cycle;Max_cycle;Signal;HPM_P1;HPM_P2
2021/03/03 00:01:04;;;;;;;18.43;8.60;;;3.50;99.90;;;10.77;71.59;99403.81;5042771;28;20262;-74
2021/03/03 00:03:31;;;;;;;20.37;9.17;;;3.50;99.90;;;10.83;70.55;99405.81;5053532;28;20231;-74
2021/03/03 00:05:57;;;;;;;19.67;9.47;;;3.50;99.90;;;10.63;71.86;99403.63;5053343;28;20243;-75
2021/03/03 00:08:24;;;;;;;25.77;10.07;;;3.50;99.90;;;10.68;71.87;99403.16;5043808;28;20232;-75
2021/03/03 00:10:50;;;;;;;16.90;8.93;;;3.50;99.90;;;10.60;72.25;99404.00;5044784;28;20565;-75
2021/03/03 00:13:17;;;;;;;18.57;8.60;;;3.40;99.90;;;10.78;70.86;99407.31;5043329;28;20200;-73
2021/03/03 00:15:43;;;;;;;19.70;8.80;;;3.40;99.90;;;10.43;72.69;99397.81;5045551;28;20208;-72
2021/03/03 00:18:10;;;;;;;21.47;9.30;;;3.40;99.90;;;10.41;73.26;99394.44;5043426;28;20728;-72
2021/03/03 00:20:37;;;;;;;27.43;8.90;;;3.40;99.90;;;10.32;74.26;99402.63;5044231;28;20191;-74
2021/03/03 00:23:03;;;;;;;22.53;9.20;;;3.40;99.90;;;10.44;73.15;99398.63;5052458;28;20238;-74
2021/03/03 00:25:30;;;;;;;23.50;9.67;;;3.40;99.90;;;10.27;74.67;99396.97;5053229;28;20576;-74
2021/03/03 00:27:56;;;;;;;19.10;9.23;;;3.50;99.90;;;10.48;73.58;99395.47;5044115;28;20753;-74
2021/03/03 00:30:24;;;;;;;23.10;9.17;;;3.40;99.90;;;10.41;72.98;99394.44;5050807;28;20198;-74
2021/03/03 00:32:50;;;;;;;21.33;9.10;;;3.40;99.90;;;10.07;74.78;99401.78;5040884;28;20253;-72
2021/03/03 00:35:18;;;;;;;24.33;9.33;;;3.40;99.90;;;9.80;76.73;99393.16;5041328;28;20207;-73
2021/03/03 00:37:44;;;;;;;23.33;9.13;;;3.40;99.90;;;10.20;73.58;99395.97;5046481;28;20703;-72
2021/03/03 00:40:12;;;;;;;24.17;10.27;;;3.30;99.90;;;10.30;74.61;99399.31;5048692;28;20544;-73
2021/03/03 00:42:39;;;;;;;22.07;9.53;;;3.40;99.90;;;10.36;74.35;99391.44;5039119;28;20208;-75
2021/03/03 00:45:07;;;;;;;22.17;8.60;;;3.30;99.90;;;10.32;73.64;99390.13;5043937;28;20346;-76
2021/03/03 00:47:34;;;;;;;18.53;8.87;;;3.20;99.90;;;10.36;72.73;99395.97;5048252;28;20326;-74
2021/03/03 00:50:00;;;;;;;22.93;9.60;;;3.20;99.90;;;10.36;72.95;99385.28;5045926;28;20247;-75
2021/03/03 00:52:27;;;;;;;20.17;8.50;;;3.10;99.90;;;10.31;73.09;99390.28;5044701;28;20684;-74
2021/03/03 00:54:54;;;;;;;22.53;8.73;;;3.10;99.90;;;9.82;76.33;99386.69;5046041;28;20203;-73
2021/03/03 00:57:20;;;;;;;21.27;9.23;;;3.10;1.00;;;10.23;74.76;99386.78;5043480;28;20638;-73
2021/03/03 00:59:47;;;;;;;23.03;9.23;;;3.10;1.00;;;10.34;72.82;99385.44;5043391;28;20208;-74
2021/03/03 01:02:13;;;;;;;21.63;9.33;;;3.00;1.00;;;10.06;74.78;99380.59;5035304;28;20201;-74
2021/03/03 01:04:40;;;;;;;17.17;8.20;;;3.00;1.00;;;10.28;73.18;99394.13;5041366;28;20636;-73
2021/03/03 01:07:06;;;;;;;21.97;9.53;;;;;;;10.08;74.97;99389.25;5046249;28;20249;-74
2021/03/03 01:09:34;;;;;;;21.43;8.93;;;;;;;10.15;75.20;99391.09;5051902;28;20635;-72
2021/03/03 01:12:01;;;;;;;21.77;9.30;;;;;;;9.94;75.49;99389.88;5048236;28;20407;-71
2021/03/03 01:14:28;;;;;;;18.23;7.87;;;;;;;10.20;74.89;99387.94;5045840;28;20205;-73
2021/03/03 01:16:54;;;;;;;23.60;9.00;;;;;;;10.29;73.66;99390.44;5046525;28;20204;-73
2021/03/03 01:19:22;;;;;;;22.57;9.40;;;;;;;10.07;75.32;99379.59;5046806;28;20227;-72
2021/03/03 01:21:49;;;;;;;21.77;9.07;;;;;;;9.90;76.83;99375.19;5053724;28;20204;-72
2021/03/03 01:24:15;;;;;;;23.37;9.20;;;;;;;9.92;77.46;99384.69;5054511;28;20700;-71
2021/03/03 01:26:43;;;;;;;20.43;9.10;;;;;;;9.96;77.12;99371.88;5054901;28;20324;-73
2021/03/03 01:29:10;;;;;;;27.70;9.60;;;;;;;10.10;75.38;99376.59;5054920;28;20301;-71
2021/03/03 01:31:37;;;;;;;23.43;8.93;;;;;;;10.15;75.30;99375.09;5054991;28;20207;-72
2021/03/03 01:34:04;;;;;;;22.63;10.03;;;;;;;10.39;73.55;99377.78;5047990;28;20216;-72
2021/03/03 01:36:30;;;;;;;24.20;9.63;;;;;;;10.37;72.94;99370.94;5048827;28;20215;-74
2021/03/03 01:38:57;;;;;;;21.70;9.97;;;;;;;10.33;73.32;99361.59;5046950;28;20230;-75
2021/03/03 01:41:24;;;;;;;20.13;8.67;;;;;;;10.34;73.41;99369.44;5044189;28;20209;-75
2021/03/03 01:43:52;;;;;;;24.97;9.00;;;;;;;9.92;75.65;99365.19;5044388;28;20234;-74
2021/03/03 01:46:19;;;;;;;21.50;10.30;;;;;;;9.73;77.52;99371.66;5054206;28;20299;-72
2021/03/03 01:48:45;;;;;;;21.03;9.50;;;;;;;10.02;76.24;99371.22;5045957;28;20262;-75
2021/03/03 01:51:13;;;;;;;21.40;9.90;;;;;;;10.23;74.67;99371.59;5049055;28;20556;-72
2021/03/03 01:53:39;;;;;;;19.27;9.47;;;;;;;10.05;75.55;99355.75;5053898;28;20274;-74
2021/03/03 01:56:07;;;;;;;22.77;10.17;;;;;;;10.27;74.17;99359.59;5054450;28;20265;-72
2021/03/03 01:58:34;;;;;;;25.83;9.63;;;;;;;10.07;74.64;99357.44;5045851;28;20220;-73
2021/03/03 02:01:01;;;;;;;19.43;9.03;;;;;;;10.02;74.84;99349.88;5048073;28;20671;-73
2021/03/03 02:03:28;;;;;;;18.33;8.87;;;;;;;9.84;76.68;99346.53;5050693;28;20710;-73
2021/03/03 02:05:59;;;;;;;23.20;9.60;;;;;;;10.25;73.53;99351.75;5053376;28;20576;-75
2021/03/03 02:08:30;;;;;;;23.13;9.47;;;;;;;10.20;72.73;99358.59;5059302;28;20591;-74
2021/03/03 02:11:01;;;;;;;21.23;8.70;;;;;;;9.93;74.80;99354.38;5060088;28;20207;-75
2021/03/03 02:13:30;;;;;;;17.67;8.43;;;;;;;9.82;75.95;99354.69;5048723;28;20191;-74
2021/03/03 02:15:58;;;;;;;22.27;8.20;;;;;;;10.13;73.99;99366.44;5052831;28;20218;-73
2021/03/03 02:18:26;;;;;;;20.80;9.00;;;;;;;10.18;73.21;99355.25;5044337;28;20259;-72
2021/03/03 02:20:57;;;;;;;19.33;8.80;;;;;;;10.18;73.37;99353.44;5045598;28;20207;-73
2021/03/03 02:23:33;;;;;;;20.47;9.03;;;;;;;9.95;74.99;99354.22;5053269;28;20222;-72
2021/03/03 02:26:02;;;;;;;20.90;9.07;;;;;;;10.11;73.97;99356.91;5053682;28;20188;-72
2021/03/03 02:28:29;;;;;;;19.33;9.53;;;;;;;9.84;75.51;99355.34;5044787;28;20230;-71
2021/03/03 02:30:56;;;;;;;15.43;8.20;;;;;;;9.70;75.75;99360.47;5053675;28;20258;-73
2021/03/03 02:33:23;;;;;;;17.87;8.77;;;;;;;9.99;74.67;99351.03;5045380;28;20207;-73
2021/03/03 02:35:50;;;;;;;21.50;8.63;;;;;;;9.94;74.31;99355.22;5045313;28;20202;-73
2021/03/03 02:38:17;;;;;;;20.37;9.17;;;;;;;9.94;74.62;99348.03;5044719;28;20315;-73
2021/03/03 02:40:44;;;;;;;19.27;9.10;;;;;;;9.72;76.60;99348.66;5048864;28;20203;-74
2021/03/03 02:43:14;;;;;;;18.97;9.13;;;;;;;10.12;74.05;99358.59;5044162;28;20226;-70
2021/03/03 02:45:41;;;;;;;21.50;9.20;;;;;;;10.12;73.19;99355.09;5045437;28;20202;-73
2021/03/03 02:48:09;;;;;;;14.43;7.80;;;;;;;10.10;73.30;99358.75;5037913;28;20228;-71
2021/03/03 02:50:36;;;;;;;19.53;8.83;;;;;;;10.10;73.68;99353.41;5051032;28;20772;-72
2021/03/03 02:53:03;;;;;;;20.07;8.57;;;;;;;10.12;73.12;99352.44;5053585;28;20228;-72
2021/03/03 02:55:31;;;;;;;19.77;8.93;;;;;;;9.60;76.47;99357.13;5044877;28;20227;-71
2021/03/03 02:57:59;;;;;;;19.80;8.90;;;;;;;9.84;76.19;99363.34;5052783;28;20229;-71
2021/03/03 03:00:29;;;;;;;24.07;8.73;;;;;;;10.02;74.48;99352.53;5042509;28;20685;-73
2021/03/03 03:03:03;;;;;;;20.47;9.30;;;;;;;10.04;73.99;99346.06;5041570;28;20205;-71
2021/03/03 03:05:31;;;;;;;17.90;8.93;;;;;;;9.83;74.66;99353.69;5050102;28;20487;-71
2021/03/03 03:08:00;;;;;;;19.80;9.70;;;;;;;9.49;76.23;99342.25;5052771;28;20647;-72
2021/03/03 03:10:27;;;;;;;17.67;8.63;;;;;;;9.62;76.68;99347.97;5051403;28;20214;-72
2021/03/03 03:12:55;;;;;;;18.70;8.90;;;;;;;9.70;77.30;99341.81;5044717;28;20198;-71
2021/03/03 03:15:24;;;;;;;21.57;8.53;;;;;;;9.57;77.19;99336.94;5042643;28;20249;-71
2021/03/03 03:17:57;;;;;;;20.53;8.67;;;;;;;9.81;76.37;99334.34;5041314;28;20270;-72
2021/03/03 03:20:24;;;;;;;21.93;8.77;;;;;;;9.94;75.49;99345.34;5049596;28;20687;-73
2021/03/03 03:22:51;;;;;;;19.73;8.90;;;;;;;10.01;74.36;99341.06;5052603;28;20199;-73
2021/03/03 03:25:18;;;;;;;18.93;8.23;;;;;;;9.90;74.08;99330.69;5044317;28;20274;-72
2021/03/03 03:27:46;;;;;;;18.77;8.53;;;;;;;9.69;75.79;99345.50;5048009;28;20236;-73
2021/03/03 03:30:14;;;;;;;23.57;8.83;;;;;;;9.80;76.05;99339.84;5044065;28;20218;-73
2021/03/03 03:32:42;;;;;;;18.40;8.67;;;;;;;9.26;79.42;99343.84;5044404;28;20202;-72
2021/03/03 03:35:11;;;;;;;20.20;8.73;;;;;;;9.78;76.42;99348.00;5051089;28;20215;-71
2021/03/03 03:37:39;;;;;;;17.13;8.37;;;;;;;9.63;77.48;99346.97;5044451;28;20221;-73
2021/03/03 03:40:07;;;;;;;19.73;9.73;;;;;;;9.79;76.14;99343.50;5044452;28;20665;-73
2021/03/03 03:42:35;;;;;;;21.97;9.43;;;;;;;9.89;74.97;99349.53;5051312;28;20578;-72
2021/03/03 03:45:04;;;;;;;21.53;9.37;;;;;;;9.88;74.97;99347.84;5044020;28;20245;-72
2021/03/03 03:47:31;;;;;;;21.47;8.67;;;;;;;9.84;75.47;99346.53;5041083;28;20246;-71
2021/03/03 03:50:02;;;;;;;15.90;7.93;;;;;;;9.75;75.80;99347.50;5047041;28;20208;-72
2021/03/03 03:52:30;;;;;;;20.20;9.00;;;;;;;9.53;77.08;99348.94;5052368;28;20199;-72
2021/03/03 03:54:57;;;;;;;16.87;8.50;;;;;;;9.50;78.32;99357.25;5043743;28;20693;-72
2021/03/03 03:57:24;;;;;;;19.83;9.50;;;;;;;9.32;79.92;99363.66;5042111;28;20222;-71
2021/03/03 03:59:51;;;;;;;26.20;9.90;;;;;;;9.56;78.43;99353.94;5040717;28;20211;-71
2021/03/03 04:02:18;;;;;;;22.83;9.67;;;;;;;9.61;77.44;99359.63;5048615;28;20594;-71
2021/03/03 04:04:45;;;;;;;17.07;8.60;;;;;;;9.59;77.00;99361.59;5045518;28;20221;-71
2021/03/03 04:07:12;;;;;;;19.13;10.07;;;;;;;9.35;78.89;99364.19;5042271;28;20216;-71
2021/03/03 04:09:40;;;;;;;17.60;8.97;;;;;;;9.45;78.75;99362.25;5044460;28;20200;-72
2021/03/03 04:12:07;;;;;;;21.53;9.23;;;;;;;9.07;81.64;99365.38;5050027;28;20217;-71
2021/03/03 04:14:34;;;;;;;19.10;9.17;;;;;;;9.47;78.57;99370.06;5040173;28;20198;-73
2021/03/03 04:17:01;;;;;;;24.07;9.73;;;;;;;9.24;80.94;99366.31;5039887;28;20206;-72
2021/03/03 04:19:28;;;;;;;22.83;10.00;;;;;;;9.54;78.06;99366.59;5050099;28;20203;-70
2021/03/03 04:21:54;;;;;;;18.07;8.27;;;;;;;9.54;77.15;99368.44;5051606;28;20198;-72
2021/03/03 04:24:21;;;;;;;23.23;10.17;;;;;;;9.51;77.29;99372.25;5041801;28;20233;-72
2021/03/03 04:26:49;;;;;;;20.67;9.03;;;;;;;9.51;77.09;99379.41;5040245;28;20215;-71
2021/03/03 04:29:16;;;;;;;18.43;8.47;;;;;;;9.50;77.10;99369.75;5048927;28;20572;-71
2021/03/03 04:31:42;;;;;;;28.27;11.07;;;;;;;9.49;77.19;99365.41;5048821;28;20200;-71
2021/03/03 04:34:09;;;;;;;20.40;9.80;;;;;;;9.08;80.14;99372.38;5043116;28;20212;-71
2021/03/03 04:36:36;;;;;;;22.87;9.90;;;;;;;9.24;80.06;99372.44;5043728;28;20285;-72
2021/03/03 04:39:03;;;;;;;22.60;9.53;;;;;;;9.56;76.64;99369.09;5049223;28;20230;-72
2021/03/03 04:41:30;;;;;;;24.23;10.63;;;;;;;9.60;75.78;99368.59;5043132;28;20676;-73
2021/03/03 04:43:57;;;;;;;22.17;9.80;;;;;;;9.23;78.19;99368.13;5051100;28;20233;-72
2021/03/03 04:46:24;;;;;;;22.80;9.17;;;;;;;9.22;78.50;99373.59;5046872;28;20570;-73
2021/03/03 04:48:51;;;;;;;28.47;9.70;;;;;;;9.53;76.78;99369.41;5047538;28;20222;-72
2021/03/03 04:51:18;;;;;;;23.70;10.10;;;;;;;9.60;75.27;99363.25;5053194;28;20213;-73
2021/03/03 04:53:45;;;;;;;23.73;9.17;;;;;;;9.55;75.81;99367.44;5047201;28;20256;-71
2021/03/03 04:56:12;;;;;;;21.03;10.23;;;;;;;9.26;77.40;99365.16;5047374;28;20203;-72
2021/03/03 04:58:38;;;;;;;24.77;8.67;;;;;;;9.65;75.17;99365.47;5047329;28;20215;-71
2021/03/03 05:01:15;;;;;;;24.93;10.10;;;;;;;9.73;74.69;99371.66;5050527;28;20196;-71
2021/03/03 05:03:42;;;;;;;22.00;10.63;;;;;;;9.62;75.03;99363.97;5045309;28;20435;-72
2021/03/03 05:06:09;;;;;;;21.47;9.53;;;;;;;9.66;74.89;99359.13;5055195;28;20686;-70
2021/03/03 05:08:36;;;;;;;23.30;9.47;;;;;;;9.41;76.23;99360.03;5051595;28;20590;-71
2021/03/03 05:11:03;;;;;;;23.00;9.83;;;;;;;9.60;76.27;99357.13;5050881;28;20220;-71
2021/03/03 05:13:30;;;;;;;23.20;9.93;;;;;;;9.41;77.41;99357.38;5049741;28;20206;-71
2021/03/03 05:15:58;;;;;;;25.83;10.73;;;;;;;9.50;77.44;99351.09;5054353;28;20693;-72
2021/03/03 05:18:25;;;;;;;23.80;10.23;;;;;;;9.65;75.77;99350.28;5054126;28;20244;-71
2021/03/03 05:20:52;;;;;;;23.93;9.80;;;;;;;9.76;73.91;99360.66;5056324;28;20617;-72
2021/03/03 05:23:27;;;;;;;24.70;10.03;;;;;;;9.80;73.68;99361.19;5046576;28;20228;-72
2021/03/03 05:25:54;;;;;;;27.47;10.37;;;;;;;9.84;73.00;99358.00;5045977;28;20556;-71
2021/03/03 05:28:20;;;;;;;24.20;10.53;;;;;;;9.84;72.92;99358.00;5050065;28;20227;-72
2021/03/03 05:30:47;;;;;;;23.67;9.23;;;;;;;9.82;72.81;99348.50;5054841;28;20207;-71
2021/03/03 05:33:22;;;;;;;21.70;10.00;;;;;;;9.71;73.65;99343.47;5045303;28;20666;-74
2021/03/03 05:35:50;;;;;;;21.60;9.77;;;;;;;9.53;75.07;99350.75;5049759;28;20203;-71
2021/03/03 05:38:17;;;;;;;21.67;9.57;;;;;;;9.56;75.12;99343.28;5053312;28;20215;-71
2021/03/03 05:40:46;;;;;;;20.13;10.03;;;;;;;9.55;74.89;99341.59;5052267;28;20600;-72
2021/03/03 05:43:13;;;;;;;24.87;9.47;;;;;;;9.19;77.69;99339.31;5045907;28;20233;-72
2021/03/03 05:45:41;;;;;;;20.07;9.27;;;;;;;9.18;79.05;99345.63;5045910;28;20195;-71
2021/03/03 05:48:13;;;;;;;19.93;9.63;;;;;;;9.33;78.23;99339.53;5053984;28;20250;-71
2021/03/03 05:50:41;;;;;;;22.07;9.73;;;;;;;9.74;75.64;99345.84;5053586;28;20199;-71
2021/03/03 05:53:09;;;;;;;21.37;9.90;;;;;;;9.82;74.55;99343.16;5053756;28;20783;-71
2021/03/03 05:55:36;;;;;;;22.83;10.07;;;;;;;9.87;74.31;99344.34;5046186;28;20641;-72
2021/03/03 05:58:03;;;;;;;24.93;10.50;;;;;;;9.79;74.58;99344.31;5046077;28;20362;-71
2021/03/03 06:00:30;;;;;;;16.23;8.37;;;;;;;9.75;75.68;99342.97;5058218;28;20210;-70
2021/03/03 06:02:57;;;;;;;20.57;9.33;;;;;;;9.64;76.09;99355.81;5067785;28;20223;-73
2021/03/03 06:05:24;;;;;;;23.90;10.50;;;;;;;9.63;76.49;99344.28;5062865;28;20223;-72
2021/03/03 06:07:52;;;;;;;26.40;9.67;;;;;;;9.92;75.16;99351.84;5046274;28;20241;-71
2021/03/03 06:10:19;;;;;;;24.73;10.27;;;;;;;9.98;74.00;99360.03;5054461;28;20214;-71
2021/03/03 06:12:49;;;;;;;20.43;8.90;;;;;;;9.97;73.99;99357.53;5051587;28;20211;-71
2021/03/03 06:15:17;;;;;;;21.50;9.53;;;;;;;9.97;73.92;99363.72;5047784;28;20207;-71
2021/03/03 06:17:44;;;;;;;25.80;10.63;;;;;;;9.58;76.38;99359.09;5052521;28;20225;-72
2021/03/03 06:20:12;;;;;;;24.00;11.13;;;;;;;9.87;75.58;99360.34;5045707;28;20235;-71
2021/03/03 06:22:39;;;;;;;23.63;11.13;;;;;;;9.93;75.22;99361.53;5045798;28;20211;-72
2021/03/03 06:25:19;;;;;;;23.07;9.87;;;;;;;10.03;74.25;99370.19;5045954;28;20596;-72
2021/03/03 06:27:45;;;;;;;26.27;11.43;;;;;;;9.99;74.33;99368.88;5045719;28;20236;-73
2021/03/03 06:30:13;;;;;;;24.23;10.87;;;;;;;10.03;73.69;99368.38;5046250;28;20306;-72
2021/03/03 06:32:57;;;;;;;30.67;10.90;;;;;;;10.02;73.75;99365.88;5053288;28;20224;-73
2021/03/03 06:35:34;;;;;;;24.23;11.30;;;;;;;10.13;73.66;99370.91;5043685;28;20255;-75
2021/03/03 06:38:02;;;;;;;25.67;10.43;;;;;;;10.18;73.08;99364.09;5049085;28;20238;-74
2021/03/03 06:40:29;;;;;;;24.20;11.00;;;;;;;10.22;73.11;99364.59;5049136;28;20200;-74
2021/03/03 06:42:56;;;;;;;24.80;10.43;;;;;;;10.34;71.86;99371.25;5056489;28;20223;-76
2021/03/03 06:45:28;;;;;;;26.73;10.43;;;;;;;10.48;70.69;99365.28;5057400;28;20224;-85
2021/03/03 06:47:55;;;;;;;24.33;11.50;;;;;;;10.38;70.47;99379.78;5060742;28;20223;-74
2021/03/03 06:50:32;;;;;;;27.33;10.43;;;;;;;9.99;73.65;99364.38;5053822;28;20261;-75
2021/03/03 06:52:59;;;;;;;28.90;11.37;;;;;;;10.29;72.15;99371.78;5057890;28;20235;-81
2021/03/03 06:55:41;;;;;;;28.50;11.83;;;;;;;10.70;69.61;99376.09;5065667;28;20278;-81
2021/03/03 06:58:24;;;;;;;21.77;9.63;;;;;;;10.98;68.36;99372.06;5050390;28;20230;-74
2021/03/03 07:00:51;;;;;;;29.97;11.50;;;;;;;10.90;67.91;99373.94;5056399;28;20215;-75
2021/03/03 07:03:29;;;;;;;24.67;10.40;;;;;;;11.02;67.36;99384.06;5050473;28;20728;-76
2021/03/03 07:05:56;;;;;;;45.17;11.60;;;;;;;10.98;67.87;99384.56;5054790;28;20207;-76
2021/03/03 07:08:24;;;;;;;39.23;11.27;;;;;;;11.09;67.64;99382.38;5057992;28;20879;-76
2021/03/03 07:10:51;;;;;;;29.67;10.60;;;;;;;11.13;67.44;99375.72;5055971;28;20207;-75
2021/03/03 07:13:38;;;;;;;28.83;10.80;;;;;;;11.29;67.23;99380.16;5050951;28;20228;-76
2021/03/03 07:16:13;;;;;;;26.73;10.03;;;;;;;11.44;66.20;99383.78;5046536;28;20258;-75
2021/03/03 07:18:46;;;;;;;32.50;12.50;;;;;;;11.40;66.05;99390.47;5042304;28;20234;-74
2021/03/03 07:21:37;;;;;;;29.63;11.00;;;;;;;11.42;65.72;99383.94;5048054;28;20209;-74
2021/03/03 07:24:06;;;;;;;35.50;10.80;;;;;;;11.70;65.39;99388.88;5047463;28;20308;-75
2021/03/03 07:26:34;;;;;;;24.17;10.30;;;;;;;11.88;64.45;99383.09;5052319;28;20213;-76
2021/03/03 07:29:05;;;;;;;22.97;9.70;;;;;;;11.87;63.92;99390.47;5049388;28;20271;-75
2021/03/03 07:31:36;;;;;;;21.60;10.40;;;;;;;12.18;63.96;99388.59;5050012;28;20205;-75
2021/03/03 07:34:03;;;;;;;21.93;9.50;;;4.80;99.90;;;12.15;64.08;99392.47;5046925;28;20262;-76
2021/03/03 07:36:36;;;;;;;27.70;10.13;;;4.80;99.90;;;12.07;64.29;99390.69;5051271;28;20204;-76
2021/03/03 07:39:10;;;;;;;23.60;10.17;;;5.00;99.90;;;12.36;63.65;99389.16;5052010;28;20221;-76
2021/03/03 07:41:47;;;;;;;23.27;10.47;;;5.10;99.90;;;12.58;62.44;99389.16;5044578;28;20202;-75
2021/03/03 07:44:26;;;;;;;20.40;9.70;;;5.20;99.90;;;12.68;62.19;99389.75;5048602;28;20230;-75
2021/03/03 07:46:55;;;;;;;25.80;11.57;;;5.40;99.90;;;12.92;62.09;99380.66;5046730;28;20409;-76
2021/03/03 07:49:27;;;;;;;25.10;9.80;;;5.50;99.90;;;13.06;61.04;99382.56;5050554;28;20232;-75
2021/03/03 07:51:56;;;;;;;26.77;11.00;;;5.60;99.90;;;13.10;60.78;99391.88;5047362;28;20190;-75
2021/03/03 07:54:25;;;;;;;24.07;11.23;;;;;;;13.12;60.00;99395.22;5052344;28;20343;-74
2021/03/03 07:56:59;;;;;;;24.77;10.63;;;;;;;13.28;58.71;99393.16;5052562;28;20212;-74
2021/03/03 07:59:29;;;;;;;31.37;11.03;;;;;;;13.37;59.31;99396.63;5049267;28;20221;-74
2021/03/03 08:01:56;;;;;;;38.37;11.17;;;;;;;13.64;58.13;99404.00;5050815;28;20205;-73
2021/03/03 08:04:41;;;;;;;23.13;11.67;;;;;;;13.56;58.43;99396.88;5043492;28;20295;-74
2021/03/03 08:07:27;;;;;;;26.57;10.77;;;6.40;1.00;;;13.80;55.80;99393.91;5051954;28;20255;-75
2021/03/03 08:10:32;;;;;;;24.07;11.03;;;6.40;1.00;;;13.91;56.26;99390.72;5045206;28;20598;-75
2021/03/03 08:13:09;;;;;;;20.03;10.20;;;6.40;1.00;;;12.27;60.55;99383.84;5047496;28;20211;-76
2021/03/03 08:15:56;;;;;;;21.83;10.60;;;6.50;1.00;;;12.67;61.52;99374.66;5051750;28;20233;-77
2021/03/03 08:18:30;;;;;;;22.53;10.63;;;6.40;1.00;;;13.00;58.08;99383.25;5049729;28;20225;-76
2021/03/03 08:20:58;;;;;;;21.17;10.50;;;6.40;1.00;;;13.31;56.89;99394.66;5050767;28;20246;-74
2021/03/03 08:24:00;;;;;;;22.93;11.77;;;6.40;1.00;;;13.04;57.14;99387.25;5044105;28;20249;-74
2021/03/03 08:26:41;;;;;;;25.37;11.27;;;6.60;1.00;;;14.10;54.32;99389.28;5050307;28;20197;-75
2021/03/03 08:29:27;;;;;;;23.50;11.00;;;6.70;1.00;;;14.04;52.93;99393.56;5047697;28;20233;-77
2021/03/03 08:32:29;;;;;;;28.83;11.83;;;6.90;1.00;;;13.54;54.77;99396.25;5050440;28;20689;-79
2021/03/03 08:34:57;;;;;;;25.23;10.20;;;7.00;1.00;;;14.25;53.42;99396.31;5046943;28;20289;-75
2021/03/03 08:37:33;;;;;;;22.20;10.67;;;7.10;1.00;;;14.48;51.47;99396.16;5043116;28;20230;-75
2021/03/03 08:40:00;;;;;;;20.50;10.37;;;7.10;1.00;;;13.70;54.16;99400.56;5045422;28;20204;-77
2021/03/03 08:42:35;;;;;;;28.83;11.43;;;7.20;1.00;;;13.68;55.35;99400.75;5045750;28;20200;-75
2021/03/03 08:45:16;;;;;;;26.17;10.63;;;7.20;1.00;;;13.57;54.73;99398.53;5042081;28;20678;-78
2021/03/03 08:47:56;;;;;;;26.90;11.37;;;7.30;1.00;;;14.04;52.26;99398.91;5041559;28;20252;-76
2021/03/03 08:50:43;;;;;;;21.53;11.37;;;7.40;1.00;;;13.86;52.47;99393.16;5050509;28;20316;-74
2021/03/03 08:53:48;;;;;;;22.23;12.00;;;7.50;1.00;;;13.65;53.88;99392.25;5052526;28;20724;-76
2021/03/03 08:56:37;;;;;;;33.83;12.63;;;7.60;1.00;;;12.98;57.15;99388.81;5050818;28;20687;-75
2021/03/03 08:59:06;;;;;;;24.47;11.17;;;7.50;1.00;;;12.63;58.00;99385.91;5044890;28;20223;-74
2021/03/03 09:01:53;;;;;;;26.23;12.47;;;7.50;1.00;;;13.37;55.35;99383.22;5048907;28;20559;-76
2021/03/03 09:04:27;;;;;;;26.73;11.83;;;7.50;1.00;;;13.89;52.91;99389.25;5047979;28;20749;-75
2021/03/03 09:06:57;;;;;;;26.53;11.30;;;7.70;1.00;;;14.16;51.34;99397.44;5047990;28;20207;-75
2021/03/03 09:09:25;;;;;;;20.93;11.27;;;7.90;1.00;;;14.58;51.31;99388.59;5051595;28;20702;-76
2021/03/03 09:12:07;;;;;;;26.33;12.40;;;8.00;1.00;;;14.68;48.59;99403.34;5052702;28;20237;-76
2021/03/03 09:14:36;;;;;;;20.50;9.93;;;8.20;1.00;;;14.04;50.65;99398.09;5045825;28;20259;-76
2021/03/03 09:17:05;;;;;;;22.17;10.60;;;8.20;1.00;;;13.40;52.57;99397.06;5045457;28;20305;-75
2021/03/03 09:19:33;;;;;;;20.00;10.20;;;8.10;1.00;;;13.67;52.46;99395.59;5051169;28;20224;-74
2021/03/03 09:22:01;;;;;;;23.63;11.17;;;8.10;1.00;;;14.62;48.79;99396.06;5053436;28;20829;-75
2021/03/03 09:24:30;;;;;;;22.20;10.23;;;8.30;1.00;;;14.93;47.61;99403.75;5050811;28;20307;-76
2021/03/03 09:27:07;;;;;;;23.77;11.17;;;8.50;1.00;;;14.17;49.56;99399.09;5050870;28;20285;-75
2021/03/03 09:29:37;;;;;;;23.97;11.80;;;8.50;1.00;;;13.71;51.95;99405.75;5051756;28;20286;-76
2021/03/03 09:32:09;;;;;;;21.00;11.30;;;8.40;1.00;;;13.79;51.44;99399.44;5052694;28;20212;-76
2021/03/03 09:34:44;;;;;;;20.23;10.07;;;8.40;1.00;;;14.53;48.51;99405.28;5046578;28;20781;-76
2021/03/03 09:37:11;;;;;;;25.37;11.17;;;8.60;1.00;;;15.29;46.44;99405.28;5052515;28;20214;-76
2021/03/03 09:39:37;;;;;;;23.07;11.50;;;8.80;1.00;;;13.80;50.35;99393.91;5057067;28;20209;-76
2021/03/03 09:42:07;;;;;;;23.30;10.97;;;8.80;1.00;;;13.60;52.56;99390.13;5052172;28;20217;-74
2021/03/03 09:44:50;;;;;;;23.30;11.20;;;8.70;1.00;;;13.71;51.51;99386.97;5048094;28;20244;-76
2021/03/03 09:47:26;;;;;;;21.80;10.53;;;8.70;1.00;;;14.36;49.87;99392.28;5045409;28;20858;-77
2021/03/03 09:49:53;;;;;;;23.90;10.67;;;8.90;1.00;;;14.36;49.03;99393.13;5048129;28;20201;-77
2021/03/03 09:52:20;;;;;;;22.47;11.00;;;9.00;1.00;;;14.92;48.68;99380.59;5049105;28;20197;-77
2021/03/03 09:54:54;;;;;;;25.03;11.23;;;9.10;1.00;;;15.70;44.87;99394.59;5059387;28;20258;-76
2021/03/03 09:57:22;;;;;;;28.13;11.57;;;9.40;1.00;;;15.41;46.39;99389.47;5063949;28;20241;-76
2021/03/03 09:59:57;;;;;;;20.93;10.40;;;9.50;1.00;;;14.98;46.29;99399.47;5053987;28;20209;-76
2021/03/03 10:02:29;;;;;;;21.37;10.37;;;9.50;1.00;;;15.55;44.44;99393.91;5045248;28;20195;-75
2021/03/03 10:05:01;;;;;;;18.90;10.37;;;9.70;1.00;;;16.56;42.64;99398.22;5053106;28;20304;-76
2021/03/03 10:07:47;;;;;;;28.67;10.90;;;9.90;1.00;;;16.67;41.18;99408.38;5043813;28;20255;-76
2021/03/03 10:10:19;;;;;;;21.57;10.10;;;10.10;1.00;;;15.63;43.18;99407.19;5044181;28;20219;-76
2021/03/03 10:12:55;;;;;;;22.83;10.77;;;10.20;1.00;;;15.45;44.58;99398.81;5052937;28;20223;-75
2021/03/03 10:15:24;;;;;;;19.33;10.67;;;10.20;1.00;;;14.39;48.10;99386.53;5054695;28;20205;-75
2021/03/03 10:18:06;;;;;;;20.13;10.93;;;9.90;1.00;;;15.27;46.53;99385.00;5043444;28;20218;-77
2021/03/03 10:20:38;;;;;;;23.97;10.67;;;10.00;1.00;;;15.00;46.72;99385.84;5046429;28;20201;-76
2021/03/03 10:23:11;;;;;;;19.90;10.07;;;10.00;1.00;;;15.70;44.53;99389.22;5055553;28;20261;-77
2021/03/03 10:25:45;;;;;;;18.90;10.03;;;10.10;1.00;;;15.46;44.88;99395.91;5052306;28;20214;-77
2021/03/03 10:28:19;;;;;;;20.40;10.53;;;10.30;1.00;;;15.95;43.59;99395.75;5053853;28;20221;-76
2021/03/03 10:30:52;;;;;;;23.30;11.73;;;10.40;1.00;;;16.01;42.58;99409.22;5051817;28;20275;-76
2021/03/03 10:33:31;;;;;;;24.10;10.30;;;10.40;1.00;;;15.50;43.71;99405.25;5048838;28;20195;-76
2021/03/03 10:36:05;;;;;;;23.47;11.00;;;10.50;1.00;;;16.63;41.76;99399.06;5048399;28;20200;-76
2021/03/03 10:38:33;;;;;;;20.87;10.57;;;10.60;1.00;;;15.60;43.56;99405.72;5053153;28;20234;-76
2021/03/03 10:41:06;;;;;;;25.73;10.70;;;10.70;1.00;;;15.82;43.36;99404.59;5041592;28;20986;-75
2021/03/03 10:43:50;;;;;;;22.30;11.67;;;10.70;1.00;;;16.07;43.31;99391.44;5053130;28;20223;-77
2021/03/03 10:46:22;;;;;;;23.40;10.60;;;10.80;1.00;;;16.40;42.35;99404.00;5055992;28;20657;-75
2021/03/03 10:49:11;;;;;;;21.93;11.13;;;11.00;1.00;;;15.65;44.12;99395.19;5054217;28;20230;-76
2021/03/03 10:51:39;;;;;;;24.27;10.27;;;11.00;1.00;;;15.58;44.10;99402.41;5051333;28;20647;-77
2021/03/03 10:54:06;;;;;;;24.53;11.17;;;11.00;1.00;;;15.91;44.71;99386.41;5055001;28;20669;-77
2021/03/03 10:56:35;;;;;;;28.03;10.93;;;10.90;1.00;;;15.74;44.04;99388.63;5055922;28;20198;-77
2021/03/03 10:59:04;;;;;;;24.33;11.07;;;11.00;1.00;;;16.03;43.80;99387.47;5046840;28;20223;-77
2021/03/03 11:01:44;;;;;;;21.17;11.03;;;11.10;1.00;;;16.63;42.38;99388.28;5050813;28;20197;-77
2021/03/03 11:04:10;;;;;;;29.50;12.03;;;11.30;1.00;;;15.28;45.15;99384.81;5054870;28;20214;-77
2021/03/03 11:06:37;;;;;;;25.63;11.43;;;11.10;1.00;;;15.63;44.40;99374.88;5047542;28;20197;-76
2021/03/03 11:09:07;;;;;;;21.57;10.93;;;11.10;1.00;;;15.76;44.60;99374.97;5049335;28;20230;-77
2021/03/03 11:11:34;;;;;;;17.87;9.57;;;11.10;1.00;;;16.16;43.00;99385.66;5041657;28;20213;-77